createdAt,value
2023-04-09T00:02:21.428Z,6.88
2023-04-09T00:05:12.418Z,6.81
2023-04-09T00:08:01.549Z,6.87
2023-04-09T00:10:50.866Z,6.85
2023-04-09T00:13:40.068Z,6.86
2023-04-09T00:16:30.307Z,6.85
2023-04-09T00:19:44.426Z,6.88
2023-04-09T00:22:34.376Z,6.86
2023-04-09T00:25:23.797Z,6.87
2023-04-09T00:28:12.856Z,6.85
2023-04-09T00:31:01.475Z,6.83
2023-04-09T00:33:51.095Z,6.79
2023-04-09T00:36:40.916Z,6.78
2023-04-09T00:39:30.889Z,6.85
2023-04-09T00:42:19.964Z,6.79
2023-04-09T00:45:10.078Z,6.82
2023-04-09T00:47:58.753Z,6.77
2023-04-09T00:50:48.254Z,6.67
2023-04-09T00:53:36.931Z,6.68
2023-04-09T00:56:30.202Z,6.69
2023-04-09T00:59:19.982Z,6.67
2023-04-09T01:02:09.533Z,6.65
2023-04-09T01:04:58.573Z,6.68
2023-04-09T01:08:02.652Z,6.68
2023-04-09T01:10:58.676Z,6.62
2023-04-09T01:13:54.587Z,6.38
2023-04-09T01:16:48.333Z,6.22
2023-04-09T01:19:45.345Z,6.13
2023-04-09T01:22:48.553Z,6.22
2023-04-09T01:25:46.628Z,6.23
2023-04-09T01:28:43.720Z,6.29
2023-04-09T01:31:35.883Z,6.26
2023-04-09T01:34:25.367Z,6.20
2023-04-09T01:37:16.305Z,6.26
2023-04-09T01:40:08.438Z,6.35
2023-04-09T01:42:59.246Z,6.29
2023-04-09T01:45:50.224Z,6.35
2023-04-09T01:48:39.712Z,6.32
2023-04-09T01:51:28.581Z,6.23
2023-04-09T01:54:18.873Z,6.32
2023-04-09T01:57:07.455Z,6.34
2023-04-09T01:59:58.011Z,6.34
2023-04-09T02:02:57.066Z,6.32
2023-04-09T02:05:53.133Z,6.18
2023-04-09T02:08:46.276Z,6.15
2023-04-09T02:11:38.944Z,6.21
2023-04-09T02:14:30.689Z,6.14
2023-04-09T02:17:21.032Z,6.19
2023-04-09T02:20:12.526Z,6.12
2023-04-09T02:23:02.072Z,6.08
2023-04-09T02:25:50.908Z,5.79
2023-04-09T02:28:40.831Z,5.95
2023-04-09T02:31:29.754Z,5.85
2023-04-09T02:34:18.849Z,5.73
2023-04-09T02:37:09.047Z,5.66
2023-04-09T02:39:59.381Z,5.67
2023-04-09T02:42:48.065Z,5.66
2023-04-09T02:45:36.883Z,5.68
2023-04-09T02:48:25.716Z,5.65
2023-04-09T02:51:15.962Z,5.58
2023-04-09T02:54:05.979Z,5.54
2023-04-09T02:56:56.244Z,5.61
2023-04-09T02:59:45.607Z,5.60
2023-04-09T03:02:35.161Z,5.34
2023-04-09T03:05:24.019Z,5.26
2023-04-09T03:08:13.025Z,5.18
2023-04-09T03:11:02.983Z,5.13
2023-04-09T03:13:52.365Z,5.18
2023-04-09T03:16:41.000Z,5.21
2023-04-09T03:19:32.263Z,5.13
2023-04-09T03:22:22.221Z,5.10
2023-04-09T03:25:14.073Z,4.98
2023-04-09T03:28:04.225Z,4.97
2023-04-09T03:31:01.540Z,4.90
2023-04-09T03:33:52.415Z,4.94
2023-04-09T03:36:42.560Z,4.92
2023-04-09T03:39:41.194Z,4.99
2023-04-09T03:42:30.340Z,4.96
2023-04-09T03:45:20.833Z,4.83
2023-04-09T03:48:14.034Z,4.87
2023-04-09T03:51:02.760Z,4.83
2023-04-09T03:53:59.982Z,4.85
2023-04-09T03:56:49.155Z,4.80
2023-04-09T03:59:44.131Z,4.69
2023-04-09T04:02:34.983Z,4.61
2023-04-09T04:05:27.508Z,4.65
2023-04-09T04:08:19.036Z,4.54
2023-04-09T04:11:09.716Z,4.61
2023-04-09T04:13:59.198Z,4.55
2023-04-09T04:16:48.744Z,4.52
2023-04-09T04:19:42.415Z,4.42
2023-04-09T04:22:31.945Z,4.50
2023-04-09T04:25:21.981Z,4.13
2023-04-09T04:28:10.922Z,4.48
2023-04-09T04:31:03.890Z,4.41
2023-04-09T04:33:54.647Z,4.39
2023-04-09T04:36:44.869Z,4.36
2023-04-09T04:39:34.971Z,4.34
2023-04-09T04:42:28.167Z,4.38
2023-04-09T04:45:18.029Z,4.46
2023-04-09T04:48:11.501Z,4.45
2023-04-09T04:51:02.775Z,4.46
2023-04-09T04:54:00.811Z,4.43
2023-04-09T04:56:50.862Z,3.91
2023-04-09T04:59:55.217Z,4.41
2023-04-09T05:02:44.460Z,4.42
2023-04-09T05:05:41.638Z,4.40
2023-04-09T05:08:31.760Z,4.45
2023-04-09T05:11:22.187Z,4.47
2023-04-09T05:14:13.534Z,4.49
2023-04-09T05:17:02.443Z,4.45
2023-04-09T05:20:02.331Z,4.49
2023-04-09T05:23:03.707Z,4.47
2023-04-09T05:25:58.364Z,4.49
2023-04-09T05:28:57.489Z,4.53
2023-04-09T05:31:47.125Z,4.60
2023-04-09T05:34:47.714Z,4.65
2023-04-09T05:37:38.276Z,4.67
2023-04-09T05:40:28.128Z,4.70
2023-04-09T05:43:16.883Z,4.74
2023-04-09T05:46:07.361Z,4.81
2023-04-09T05:48:57.088Z,4.88
2023-04-09T05:51:48.132Z,4.95
2023-04-09T05:54:42.997Z,4.98
2023-04-09T05:57:33.307Z,4.97
2023-04-09T06:00:25.762Z,5.05
2023-04-09T06:03:15.821Z,5.09
2023-04-09T06:06:05.084Z,5.11
2023-04-09T06:08:53.826Z,5.09
2023-04-09T06:11:42.525Z,5.09
2023-04-09T06:14:33.517Z,5.10
2023-04-09T06:17:22.748Z,5.01
2023-04-09T06:20:13.391Z,5.20
2023-04-09T06:23:02.195Z,5.25
2023-04-09T06:25:51.358Z,5.39
2023-04-09T06:28:40.012Z,5.35
2023-04-09T06:31:29.111Z,5.40
2023-04-09T06:34:17.765Z,5.50
2023-04-09T06:37:08.851Z,5.58
2023-04-09T06:40:00.836Z,5.64
2023-04-09T06:42:50.525Z,5.70
2023-04-09T06:45:48.438Z,5.79
2023-04-09T06:48:38.476Z,5.89
2023-04-09T06:51:27.147Z,5.83
2023-04-09T06:54:17.574Z,6.10
2023-04-09T06:57:07.560Z,6.15
2023-04-09T06:59:56.484Z,6.31
2023-04-09T07:02:45.367Z,6.41
2023-04-09T07:05:34.170Z,6.53
2023-04-09T07:08:23.816Z,6.70
2023-04-09T07:11:13.729Z,6.86
2023-04-09T07:14:02.357Z,6.88
2023-04-09T07:16:50.932Z,6.97
2023-04-09T07:19:40.243Z,7.07
2023-04-09T07:22:31.924Z,7.14
2023-04-09T07:25:21.538Z,7.28
2023-04-09T07:28:11.993Z,7.32
2023-04-09T07:31:02.898Z,7.44
2023-04-09T07:33:52.753Z,7.46
2023-04-09T07:36:42.912Z,7.55
2023-04-09T07:39:31.943Z,7.38
2023-04-09T07:42:21.150Z,7.68
2023-04-09T07:45:11.504Z,7.80
2023-04-09T07:48:04.741Z,7.92
2023-04-09T07:50:53.442Z,7.93
2023-04-09T07:53:43.284Z,7.84
2023-04-09T07:56:31.880Z,7.83
2023-04-09T07:59:21.425Z,7.99
2023-04-09T08:02:14.283Z,8.12
2023-04-09T08:05:04.700Z,8.06
2023-04-09T08:07:53.413Z,8.24
2023-04-09T08:10:42.369Z,8.27
2023-04-09T08:13:31.020Z,8.40
2023-04-09T08:16:21.597Z,8.47
2023-04-09T08:19:12.246Z,8.53
2023-04-09T08:22:00.829Z,8.56
2023-04-09T08:24:53.278Z,8.78
2023-04-09T08:27:42.294Z,8.95
2023-04-09T08:30:30.859Z,9.06
2023-04-09T08:33:19.836Z,9.00
2023-04-09T08:36:11.773Z,8.93
2023-04-09T08:39:01.004Z,9.13
2023-04-09T08:41:50.365Z,9.45
2023-04-09T08:44:41.302Z,9.53
2023-04-09T08:47:30.105Z,9.68
2023-04-09T08:50:19.234Z,9.79
2023-04-09T08:53:11.841Z,9.65
2023-04-09T08:56:00.479Z,9.64
2023-04-09T08:58:49.521Z,9.66
2023-04-09T09:01:38.560Z,9.69
2023-04-09T09:04:46.178Z,9.83
2023-04-09T09:07:35.347Z,10.00
2023-04-09T09:10:38.281Z,9.90
2023-04-09T09:13:28.934Z,9.90
2023-04-09T09:16:18.867Z,9.96
2023-04-09T09:19:07.762Z,10.04
2023-04-09T09:21:58.056Z,9.92
2023-04-09T09:24:49.889Z,9.73
2023-04-09T09:27:40.948Z,9.89
2023-04-09T09:30:32.438Z,10.00
2023-04-09T09:33:21.379Z,10.06
2023-04-09T09:36:11.116Z,10.09
2023-04-09T09:39:03.814Z,10.07
2023-04-09T09:42:08.906Z,9.95
2023-04-09T09:44:59.817Z,9.92
2023-04-09T09:47:50.909Z,9.90
2023-04-09T09:50:41.760Z,9.88
2023-04-09T09:53:33.889Z,9.89
2023-04-09T09:56:24.689Z,9.83
2023-04-09T09:59:18.687Z,9.78
2023-04-09T10:02:19.267Z,9.78
2023-04-09T10:05:11.105Z,9.86
2023-04-09T10:08:01.681Z,9.91
2023-04-09T10:10:53.412Z,9.94
2023-04-09T10:13:50.144Z,10.05
2023-04-09T10:16:39.530Z,10.18
2023-04-09T10:19:30.552Z,10.39
2023-04-09T10:22:24.183Z,10.59
2023-04-09T10:25:13.142Z,10.73
2023-04-09T10:28:02.615Z,10.92
2023-04-09T10:30:51.489Z,10.88
2023-04-09T10:33:40.604Z,10.81
2023-04-09T10:36:31.949Z,10.88
2023-04-09T10:39:21.126Z,10.90
2023-04-09T10:42:14.790Z,10.88
2023-04-09T10:45:09.018Z,10.85
2023-04-09T10:47:57.977Z,10.83
2023-04-09T10:50:46.802Z,10.80
2023-04-09T10:53:37.449Z,10.85
2023-04-09T10:56:26.135Z,10.87
2023-04-09T10:59:15.137Z,10.99
2023-04-09T11:02:07.870Z,10.99
2023-04-09T11:05:08.201Z,10.99
2023-04-09T11:08:04.146Z,11.00
2023-04-09T11:10:58.325Z,11.06
2023-04-09T11:13:46.952Z,11.27
2023-04-09T11:16:36.663Z,11.44
2023-04-09T11:19:27.423Z,11.52
2023-04-09T11:22:17.338Z,11.80
2023-04-09T11:25:07.853Z,12.33
2023-04-09T11:27:57.830Z,12.96
2023-04-09T11:30:48.223Z,13.36
2023-04-09T11:33:36.926Z,13.31
2023-04-09T11:36:27.943Z,13.13
2023-04-09T11:39:16.526Z,12.94
2023-04-09T11:42:05.798Z,12.77
2023-04-09T11:44:56.318Z,12.69
2023-04-09T11:47:46.736Z,12.64
2023-04-09T11:50:35.964Z,12.54
2023-04-09T11:53:32.152Z,12.40
2023-04-09T11:56:21.012Z,12.32
2023-04-09T11:59:10.642Z,12.27
2023-04-09T12:02:01.536Z,12.18
2023-04-09T12:04:51.406Z,11.97
2023-04-09T12:07:42.338Z,11.73
2023-04-09T12:10:36.763Z,11.70
2023-04-09T12:13:33.722Z,11.97
2023-04-09T12:16:22.752Z,11.96
2023-04-09T12:19:13.851Z,11.82
2023-04-09T12:22:02.474Z,11.84
2023-04-09T12:24:52.101Z,11.94
2023-04-09T12:27:40.665Z,12.04
2023-04-09T12:30:30.926Z,12.21
2023-04-09T12:33:19.804Z,12.29
2023-04-09T12:36:11.092Z,12.36
2023-04-09T12:38:59.692Z,12.43
2023-04-09T12:41:49.155Z,12.35
2023-04-09T12:44:39.095Z,12.43
2023-04-09T12:47:29.215Z,12.55
2023-04-09T12:50:17.870Z,13.24
2023-04-09T12:53:08.915Z,13.69
2023-04-09T12:55:57.632Z,14.54
2023-04-09T12:58:47.097Z,14.78
2023-04-09T13:01:35.909Z,14.61
2023-04-09T13:04:25.550Z,14.27
2023-04-09T13:07:15.627Z,14.04
2023-04-09T13:10:06.505Z,13.92
2023-04-09T13:12:55.430Z,13.79
2023-04-09T13:15:45.459Z,13.67
2023-04-09T13:18:34.269Z,13.59
2023-04-09T13:21:22.916Z,13.58
2023-04-09T13:24:11.923Z,13.49
2023-04-09T13:27:02.433Z,13.38
2023-04-09T13:29:51.059Z,13.35
2023-04-09T13:32:39.690Z,13.41
2023-04-09T13:35:28.233Z,13.44
2023-04-09T13:38:17.789Z,13.47
2023-04-09T13:41:07.234Z,13.42
2023-04-09T13:43:57.133Z,13.36
2023-04-09T13:46:45.978Z,13.37
2023-04-09T13:49:34.629Z,13.98
2023-04-09T13:52:24.632Z,15.02
2023-04-09T13:55:14.073Z,15.54
2023-04-09T13:58:03.410Z,15.50
2023-04-09T14:00:53.326Z,15.42
2023-04-09T14:03:43.593Z,16.24
2023-04-09T14:06:32.277Z,16.37
2023-04-09T14:09:21.900Z,16.84
2023-04-09T14:12:10.788Z,17.69
2023-04-09T14:14:59.740Z,18.04
2023-04-09T14:17:49.662Z,17.83
2023-04-09T14:20:39.395Z,17.20
2023-04-09T14:23:28.205Z,16.79
2023-04-09T14:26:17.097Z,15.92
2023-04-09T14:29:06.215Z,15.84
2023-04-09T14:31:56.689Z,16.58
2023-04-09T14:34:47.737Z,17.29
2023-04-09T14:37:38.068Z,17.83
2023-04-09T14:40:26.618Z,17.85
2023-04-09T14:43:16.088Z,18.22
2023-04-09T14:46:06.749Z,17.48
2023-04-09T14:48:55.752Z,17.08
2023-04-09T14:51:45.834Z,17.22
2023-04-09T14:54:35.645Z,17.16
2023-04-09T14:57:24.284Z,17.17
2023-04-09T15:00:14.299Z,17.08
2023-04-09T15:03:03.958Z,17.21
2023-04-09T15:05:53.980Z,16.80
2023-04-09T15:08:43.866Z,16.75
2023-04-09T15:11:33.546Z,16.76
2023-04-09T15:14:24.342Z,16.66
2023-04-09T15:17:13.028Z,16.69
2023-04-09T15:20:03.693Z,16.19
2023-04-09T15:22:52.297Z,16.31
2023-04-09T15:25:42.945Z,16.54
2023-04-09T15:28:31.939Z,16.64
2023-04-09T15:31:21.584Z,16.63
2023-04-09T15:34:10.232Z,16.69
2023-04-09T15:36:59.674Z,16.63
2023-04-09T15:39:48.404Z,16.52
2023-04-09T15:42:38.947Z,16.15
2023-04-09T15:45:27.989Z,15.28
2023-04-09T15:48:17.225Z,14.66
2023-04-09T15:51:06.221Z,14.57
2023-04-09T15:53:55.786Z,15.18
2023-04-09T15:56:44.403Z,15.41
2023-04-09T15:59:35.616Z,15.51
2023-04-09T16:02:26.086Z,15.38
2023-04-09T16:05:14.929Z,15.44
2023-04-09T16:08:03.568Z,15.53
2023-04-09T16:10:53.146Z,15.87
2023-04-09T16:13:42.285Z,16.11
2023-04-09T16:16:32.716Z,16.33
2023-04-09T16:19:21.573Z,15.80
2023-04-09T16:22:11.721Z,15.72
2023-04-09T16:25:00.490Z,15.65
2023-04-09T16:27:49.153Z,15.81
2023-04-09T16:30:38.191Z,15.99
2023-04-09T16:33:29.340Z,16.21
2023-04-09T16:36:20.358Z,16.22
2023-04-09T16:39:09.025Z,15.98
2023-04-09T16:41:59.725Z,15.80
2023-04-09T16:44:48.732Z,15.37
2023-04-09T16:47:37.432Z,14.88
2023-04-09T16:50:27.576Z,14.61
2023-04-09T16:53:16.775Z,14.33
2023-04-09T16:56:06.568Z,14.09
2023-04-09T16:58:55.804Z,13.94
2023-04-09T17:01:44.469Z,13.86
2023-04-09T17:04:34.511Z,13.76
2023-04-09T17:07:24.559Z,13.66
2023-04-09T17:10:13.299Z,13.58
2023-04-09T17:13:02.574Z,13.52
2023-04-09T17:15:53.965Z,13.47
2023-04-09T17:18:42.988Z,13.45
2023-04-09T17:21:31.567Z,13.45
2023-04-09T17:24:22.308Z,13.42
2023-04-09T17:27:11.577Z,13.46
2023-04-09T17:30:00.269Z,13.48
2023-04-09T17:32:51.120Z,13.45
2023-04-09T17:35:39.806Z,13.34
2023-04-09T17:38:29.535Z,13.24
2023-04-09T17:41:19.488Z,13.15
2023-04-09T17:44:09.048Z,13.12
2023-04-09T17:46:57.586Z,12.99
2023-04-09T17:49:47.184Z,12.97
2023-04-09T17:52:37.324Z,13.02
2023-04-09T17:55:27.341Z,12.82
2023-04-09T17:58:17.985Z,12.61
2023-04-09T18:01:08.555Z,12.55
2023-04-09T18:03:57.567Z,12.38
2023-04-09T18:06:46.288Z,12.17
2023-04-09T18:09:37.861Z,12.05
2023-04-09T18:12:27.618Z,11.93
2023-04-09T18:15:18.663Z,11.84
2023-04-09T18:18:07.998Z,11.61
2023-04-09T18:20:56.573Z,11.46
2023-04-09T18:23:46.897Z,11.52
2023-04-09T18:26:36.601Z,11.52
2023-04-09T18:29:27.786Z,11.39
2023-04-09T18:32:19.919Z,11.40
2023-04-09T18:35:09.190Z,11.32
2023-04-09T18:37:58.713Z,11.25
2023-04-09T18:40:47.752Z,11.26
2023-04-09T18:43:36.424Z,11.22
2023-04-09T18:46:26.117Z,11.20
2023-04-09T18:49:16.174Z,11.25
2023-04-09T18:52:06.782Z,11.29
2023-04-09T18:54:55.377Z,11.36
2023-04-09T18:57:44.778Z,11.25
2023-04-09T19:00:33.304Z,11.27
2023-04-09T19:03:23.937Z,11.36
2023-04-09T19:06:17.553Z,11.38
2023-04-09T19:09:06.897Z,11.38
2023-04-09T19:11:57.591Z,11.37
2023-04-09T19:14:46.226Z,11.35
2023-04-09T19:17:35.795Z,11.31
2023-04-09T19:20:24.414Z,11.18
2023-04-09T19:23:15.252Z,11.21
2023-04-09T19:26:05.482Z,10.98
2023-04-09T19:28:55.303Z,11.02
2023-04-09T19:31:44.130Z,11.00
2023-04-09T19:34:34.211Z,10.79
2023-04-09T19:37:27.184Z,10.74
2023-04-09T19:40:18.547Z,10.74
2023-04-09T19:43:07.118Z,10.70
2023-04-09T19:45:56.782Z,10.54
2023-04-09T19:48:45.401Z,10.38
2023-04-09T19:51:34.685Z,10.31
2023-04-09T19:54:23.600Z,10.24
2023-04-09T19:57:13.514Z,10.16
2023-04-09T20:00:02.856Z,10.00
2023-04-09T20:03:01.092Z,9.81
2023-04-09T20:05:50.709Z,9.80
2023-04-09T20:08:39.367Z,9.70
2023-04-09T20:11:29.992Z,9.71
2023-04-09T20:14:20.337Z,9.65
2023-04-09T20:17:10.642Z,9.66
2023-04-09T20:19:59.957Z,9.72
2023-04-09T20:22:55.611Z,9.72
2023-04-09T20:25:46.518Z,9.77
2023-04-09T20:28:35.201Z,9.66
2023-04-09T20:31:28.967Z,9.66
2023-04-09T20:34:17.582Z,9.55
2023-04-09T20:37:06.735Z,9.46
2023-04-09T20:39:55.641Z,9.42
2023-04-09T20:42:45.874Z,9.36
2023-04-09T20:45:34.456Z,9.33
2023-04-09T20:48:24.833Z,9.35
2023-04-09T20:51:13.454Z,9.32
2023-04-09T20:54:02.962Z,9.23
2023-04-09T20:56:51.509Z,9.04
2023-04-09T20:59:40.882Z,9.11
2023-04-09T21:02:30.185Z,9.15
2023-04-09T21:05:23.964Z,9.20
2023-04-09T21:08:15.356Z,9.22
2023-04-09T21:11:04.001Z,9.21
2023-04-09T21:13:55.127Z,9.14
2023-04-09T21:16:44.273Z,9.17
2023-04-09T21:19:33.312Z,9.15
2023-04-09T21:22:23.949Z,9.07
2023-04-09T21:25:15.127Z,8.89
2023-04-09T21:28:04.541Z,8.79
2023-04-09T21:30:53.111Z,8.77
2023-04-09T21:33:42.608Z,8.81
2023-04-09T21:36:34.699Z,8.82
2023-04-09T21:39:24.606Z,8.74
2023-04-09T21:42:14.813Z,8.70
2023-04-09T21:45:03.595Z,8.59
2023-04-09T21:47:53.254Z,8.56
2023-04-09T21:50:41.800Z,8.53
2023-04-09T21:53:31.987Z,8.43
2023-04-09T21:56:21.868Z,8.27
2023-04-09T21:59:11.280Z,8.19
2023-04-09T22:01:59.952Z,8.11
2023-04-09T22:04:50.164Z,8.09
2023-04-09T22:07:39.857Z,8.15
2023-04-09T22:10:29.898Z,8.12
2023-04-09T22:13:19.806Z,7.99
2023-04-09T22:16:10.153Z,7.93
2023-04-09T22:18:58.803Z,7.93
2023-04-09T22:21:50.954Z,7.94
2023-04-09T22:24:39.527Z,7.93
2023-04-09T22:27:29.789Z,7.95
2023-04-09T22:30:21.202Z,7.95
2023-04-09T22:33:09.759Z,7.86
2023-04-09T22:36:00.766Z,7.81
2023-04-09T22:38:49.326Z,7.73
2023-04-09T22:41:38.822Z,7.63
2023-04-09T22:44:27.355Z,7.45
2023-04-09T22:47:18.369Z,7.41
2023-04-09T22:50:09.086Z,7.20
2023-04-09T22:52:58.748Z,7.12
2023-04-09T22:55:51.321Z,7.15
2023-04-09T22:58:40.280Z,7.04
2023-04-09T23:01:29.842Z,7.03
2023-04-09T23:04:24.053Z,7.07
2023-04-09T23:07:13.406Z,7.13
2023-04-09T23:10:02.096Z,7.03
2023-04-09T23:12:52.044Z,7.00
2023-04-09T23:15:41.009Z,6.93
2023-04-09T23:18:29.557Z,6.97
2023-04-09T23:21:19.863Z,6.93
2023-04-09T23:24:08.412Z,6.98
2023-04-09T23:26:57.772Z,6.91
2023-04-09T23:29:46.698Z,6.83
2023-04-09T23:32:36.188Z,6.72
2023-04-09T23:35:24.765Z,6.45
2023-04-09T23:38:16.608Z,6.29
2023-04-09T23:41:05.965Z,6.25
2023-04-09T23:43:55.144Z,6.24
2023-04-09T23:46:43.824Z,6.34
2023-04-09T23:49:34.288Z,6.44
2023-04-09T23:52:23.906Z,6.44
2023-04-09T23:55:15.731Z,6.46
2023-04-09T23:58:04.488Z,6.43
